Irene, Argentina
Current Conditions -  °F | °C
As of 7:00 PM on Thursday 18 Dec 2014 (Local Time) from SAZM Reporting Station
Clear Clear  
Wind Chill: 84°   Ceiling: Unl
Heat Index: 84°   Visibility: 6mi
Dew Point: 57°   Wind: 14mph
Humidity: 40%   Direction: 360°N
Pressure: 29.59"   Gusts: NA
Location:  38.52°S, 60.58°W
Report Text: SAZM 182200Z 36012KT CAVOK 29/14 Q1002
Loading
Personal Weather Stations






























Interactive Weather Map New forecast layout! Learn more

10-Day Weather Forecast

Advertisements
Track Severe Weather on mobile